Flight Track Log - Related Links

Times and Time Zones

All times are in EDT time to prevent confusion due to time zone crossing. See the SWA1810 flight status page for this flight to view local times or setup timezone preferences in your user account.

Time Position Orientation Groundspeed Altitude Reporting Facility
EDT Latitude Longitude Course Direction KTS MPH feet Rate Location/Type
Thu 07:49:57 AM 30.0092 -90.2453 15° North 155 178 800  Level Houston Center
Thu 07:50:21 AM 30.0258 -90.2400 15° North 151 174 1,500 1,645 Climbing Houston Center
Thu 07:50:59 AM 30.0533 -90.2317 15° North 180 207 2,500 2,149 Climbing Houston Center
Thu 07:51:28 AM 30.0858 -90.2206 16° North 218 251 3,900 2,262 Climbing Houston Center
Thu 07:52:00 AM 30.1156 -90.2081 20° North 218 251 4,800 2,710 Climbing Houston Center
Thu 07:53:01 AM 30.1725 -90.1483 42° Northeast 259 298 8,100 3,295 Climbing Houston Center
Thu 07:54:02 AM 30.2358 -90.0872 40° Northeast 288 331 11,500 3,197 Climbing Houston Center
Thu 07:55:03 AM 30.3128 -90.0128 40° Northeast 350 403 14,600 3,268 Climbing Houston Center
Thu 07:56:05 AM 30.3928 -89.9350 40° Northeast 368 423 18,200 3,268 Climbing Houston Center
Thu 07:57:06 AM 30.4753 -89.8533 40° Northeast 378 435 21,300 2,459 Climbing Houston Center
Thu 07:58:07 AM 30.5606 -89.7697 40° Northeast 392 451 23,200 2,066 Climbing Houston Center
Thu 07:59:08 AM 30.6292 -89.6631 53° Northeast 413 475 25,500 2,341 Climbing Houston Center
Thu 08:00:10 AM 30.7006 -89.5197 60° Northeast 424 488 28,000 2,195 Climbing Houston Center
Thu 08:01:11 AM 30.7617 -89.3967 60° Northeast 437 503 30,000 1,869 Climbing Houston Center
Thu 08:02:12 AM 30.8244 -89.2711 60° Northeast 447 514 31,800 1,475 Climbing Houston Center
Thu 08:03:13 AM 30.8728 -89.1369 67° East 449 517 33,000 585 Climbing Houston Center
Thu 08:04:15 AM 30.9133 -88.9994 71° East 449 517 33,000 146 Level Houston Center
Thu 08:05:16 AM 30.9539 -88.8672 70° East 452 520 33,300 541 Climbing Houston Center
Thu 08:06:17 AM 30.9964 -88.7297 70° East 451 519 34,100 829 Climbing Houston Center
Thu 08:07:19 AM 31.0406 -88.5861 70° East 450 518 35,000 439 Climbing Houston Center
Thu 08:08:20 AM 31.0983 -88.4564 62° Northeast 449 517 35,000  Level Houston Center
Thu 08:09:21 AM 31.1650 -88.3347 57° Northeast 447 514 35,000 683 Level Houston Center
Thu 08:10:23 AM 31.2339 -88.2081 58° Northeast 455 524 36,400 1,317 Climbing Houston Center
Thu 08:11:24 AM 31.3156 -88.0558 58° Northeast 459 528 37,700 1,279 Climbing Houston Center
Thu 08:12:25 AM 31.3869 -87.9283 57° Northeast 469 540 39,000 645 Climbing Atlanta Center
Thu 08:13:25 AM 31.4492 -87.8092 59° Northeast 450 518 39,000  Level Atlanta Center
Thu 08:14:25 AM 31.5156 -87.6853 58° Northeast 450 518 39,000  Level Atlanta Center
Thu 08:15:25 AM 31.5794 -87.5636 58° Northeast 445 512 39,000  Level Atlanta Center
Thu 08:16:25 AM 31.6456 -87.4417 57° Northeast 445 512 39,000  Level Atlanta Center
Thu 08:17:25 AM 31.6983 -87.3436 58° Northeast 440 506 39,000  Level Atlanta Center
Thu 08:18:25 AM 31.7622 -87.2092 61° Northeast 435 501 39,000  Level Atlanta Center
Thu 08:19:25 AM 31.8258 -87.0844 59° Northeast 435 501 39,000  Level Atlanta Center
Thu 08:20:25 AM 31.8917 -86.9619 58° Northeast 435 501 39,000  Level Atlanta Center
Thu 08:21:25 AM 31.9550 -86.8392 59° Northeast 440 506 39,000  Level Atlanta Center
Thu 08:22:25 AM 32.0289 -86.7092 56° Northeast 440 506 39,000  Level Atlanta Center
Thu 08:23:25 AM 32.0897 -86.5833 60° Northeast 440 506 39,000  Level Atlanta Center
Thu 08:24:25 AM 32.1550 -86.4628 57° Northeast 440 506 39,000  Level Atlanta Center
Thu 08:25:25 AM 32.2136 -86.3439 60° Northeast 430 495 39,000  Level Atlanta Center
Thu 08:26:25 AM 32.2803 -86.2353 54° Northeast 430 495 39,000  Level Atlanta Center
Thu 08:27:25 AM 32.3553 -86.1214 52° Northeast 438 504 39,000  Level Atlanta Center
Thu 08:28:25 AM 32.4303 -86.0075 52° Northeast 433 498 39,000  Level Atlanta Center
Thu 08:29:25 AM 32.5197 -85.8789 50° Northeast 446 513 39,000  Level Atlanta Center
Thu 08:30:25 AM 32.5967 -85.7647 51° Northeast 451 519 39,000  Level Atlanta Center
Thu 08:31:25 AM 32.6711 -85.6528 52° Northeast 445 512 39,000  Level Atlanta Center
Thu 08:32:25 AM 32.7478 -85.5381 52° Northeast 445 512 39,000  Level Atlanta Center
Thu 08:33:25 AM 32.8242 -85.4231 52° Northeast 445 512 39,000  Level Atlanta Center
Thu 08:34:25 AM 32.8986 -85.3081 52° Northeast 445 512 39,000  Level Atlanta Center
Thu 08:35:25 AM 32.9747 -85.1928 52° Northeast 445 512 39,000  Level Atlanta Center
Thu 08:36:25 AM 33.0489 -85.0772 53° Northeast 445 512 39,000  Level Atlanta Center
Thu 08:37:25 AM 33.1250 -84.9639 51° Northeast 440 506 39,000  Level Atlanta Center
Thu 08:38:25 AM 33.1989 -84.8506 52° Northeast 440 506 39,000  Level Atlanta Center
Thu 08:39:25 AM 33.2706 -84.7419 52° Northeast 435 501 39,000  Level Atlanta Center
Thu 08:40:25 AM 33.3378 -84.6381 52° Northeast 435 501 39,000  Level Atlanta Center
Thu 08:41:25 AM 33.4175 -84.5217 51° Northeast 442 509 39,000  Level Atlanta Center
Thu 08:42:25 AM 33.4847 -84.4025 56° Northeast 442 509 39,000  Level Atlanta Center
Thu 08:43:25 AM 33.5664 -84.2856 50° Northeast 442 509 39,000  Level Atlanta Center
Thu 08:44:25 AM 33.6439 -84.1686 51° Northeast 442 509 39,000  Level Atlanta Center
Thu 08:45:25 AM 33.7169 -84.0489 54° Northeast 442 509 39,000  Level Atlanta Center
Thu 08:46:25 AM 33.7922 -83.9339 52° Northeast 442 509 39,000  Level Atlanta Center
Thu 08:47:25 AM 33.8650 -83.8161 53° Northeast 442 509 39,000  Level Atlanta Center
Thu 08:48:25 AM 33.9442 -83.6958 52° Northeast 442 509 39,000  Level Atlanta Center
Thu 08:49:25 AM 34.0147 -83.5803 54° Northeast 442 509 39,000  Level Atlanta Center
Thu 08:50:25 AM 34.0933 -83.4594 52° Northeast 442 509 39,000  Level Atlanta Center
Thu 08:51:25 AM 34.1681 -83.3408 53° Northeast 442 509 39,000  Level Atlanta Center
Thu 08:52:25 AM 34.2422 -83.2222 53° Northeast 442 509 39,000  Level Atlanta Center
Thu 08:53:25 AM 34.3167 -83.1031 53° Northeast 442 509 39,000  Level Atlanta Center
Thu 08:54:25 AM 34.3908 -82.9817 53° Northeast 442 509 39,000  Level Atlanta Center
Thu 08:55:25 AM 34.4647 -82.8622 53° Northeast 442 509 39,000  Level Atlanta Center
Thu 08:56:25 AM 34.5389 -82.7428 53° Northeast 442 509 39,000  Level Atlanta Center
Thu 08:57:25 AM 34.6125 -82.6203 54° Northeast 442 509 39,000  Level Atlanta Center
Thu 08:58:25 AM 34.6883 -82.5003 52° Northeast 442 509 39,000  Level Atlanta Center
Thu 08:59:25 AM 34.7597 -82.3778 55° Northeast 442 509 39,000  Level Atlanta Center
Thu 09:00:25 AM 34.8333 -82.2597 53° Northeast 442 509 39,000  Level Atlanta Center
Thu 09:01:25 AM 34.9064 -82.1342 55° Northeast 442 509 39,000  Level Atlanta Center
Thu 09:02:25 AM 34.9881 -82.0106 51° Northeast 437 503 39,000  Level Atlanta Center
Thu 09:03:25 AM 35.0567 -81.8844 56° Northeast 442 509 39,000  Level Atlanta Center
Thu 09:04:25 AM 35.1211 -81.7583 58° Northeast 442 509 39,000  Level Atlanta Center
Thu 09:05:25 AM 35.1917 -81.6294 56° Northeast 449 517 39,000  Level Atlanta Center
Thu 09:06:25 AM 35.2581 -81.5028 57° Northeast 444 511 39,000  Level Atlanta Center
Thu 09:07:25 AM 35.3242 -81.3736 58° Northeast 444 511 39,000  Level Atlanta Center
Thu 09:08:25 AM 35.3903 -81.2442 58° Northeast 444 511 39,000  Level Atlanta Center
Thu 09:09:25 AM 35.4600 -81.1092 58° Northeast 455 524 39,000  Level Atlanta Center
Thu 09:10:25 AM 35.5297 -80.9764 57° Northeast 460 529 39,000  Level Atlanta Center
Thu 09:11:25 AM 35.5994 -80.8436 57° Northeast 460 529 39,000  Level Atlanta Center
Thu 09:12:25 AM 35.6692 -80.7131 57° Northeast 455 524 39,000  Level Atlanta Center
Thu 09:13:25 AM 35.7364 -80.5825 58° Northeast 455 524 39,000  Level Atlanta Center
Thu 09:14:25 AM 35.8036 -80.4517 58° Northeast 455 524 39,000  Level Atlanta Center
Thu 09:16:10 AM 35.9203 -80.2217 58° Northeast 469 540 39,000  Level Washington Center
Thu 09:17:11 AM 35.9881 -80.0869 58° Northeast 462 532 39,000  Level Washington Center
Thu 09:18:11 AM 36.0511 -79.9672 57° Northeast 441 507 39,000  Level Washington Center
Thu 09:19:12 AM 36.1264 -79.8428 53° Northeast 441 507 39,000  Level Washington Center
Thu 09:20:12 AM 36.1869 -79.7278 57° Northeast 446 513 39,000  Level Washington Center
Thu 09:21:11 AM 36.2644 -79.5900 55° Northeast 446 513 39,000  Level Washington Center
Thu 09:22:11 AM 36.3244 -79.4797 56° Northeast 438 504 39,000  Level Washington Center
Thu 09:23:12 AM 36.3953 -79.3542 55° Northeast 438 504 39,000 -1,041 Level Washington Center
Thu 09:24:12 AM 36.4706 -79.2183 55° Northeast 432 497 36,900 -2,331 Descending Washington Center
Thu 09:25:13 AM 36.5428 -79.1003 53° Northeast 432 497 34,300 -2,237 Descending Washington Center
Thu 09:26:10 AM 36.6000 -78.9994 55° Northeast 432 497 32,500 -2,118 Descending Washington Center
Thu 09:27:12 AM 36.6794 -78.8475 57° Northeast 432 497 30,100 -1,721 Descending Washington Center
Thu 09:28:12 AM 36.7364 -78.7408 56° Northeast 432 497 29,000 -559 Descending Washington Center
Thu 09:29:10 AM 36.8022 -78.6217 55° Northeast 422 486 29,000 -353 Level Washington Center
Thu 09:30:11 AM 36.8678 -78.5022 56° Northeast 417 480 28,300 -885 Descending Washington Center
Thu 09:31:12 AM 36.9394 -78.3750 55° Northeast 404 465 27,200 -1,033 Descending Washington Center
Thu 09:32:13 AM 37.0047 -78.2550 56° Northeast 410 472 26,200 -1,017 Descending Washington Center
Thu 09:33:10 AM 37.0781 -78.1508 49° Northeast 404 465 25,200 -915 Descending Washington Center
Thu 09:34:11 AM 37.1733 -78.0786 31° Northeast 391 450 24,400 -893 Descending Washington Center
Thu 09:35:11 AM 37.2625 -78.0083 32° Northeast 385 443 23,400 -694 Descending Washington Center
Thu 09:36:12 AM 37.3556 -77.9381 31° Northeast 385 443 23,000 -198 Descending Washington Center
Thu 09:37:12 AM 37.4467 -77.8678 31° Northeast 385 443 23,000 -305 Level Washington Center
Thu 09:38:10 AM 37.5378 -77.7997 31° Northeast 385 443 22,400 -814 Descending Washington Center
Thu 09:39:10 AM 37.6286 -77.7261 33° Northeast 380 437 21,400 -992 Descending Washington Center
Thu 09:40:11 AM 37.7197 -77.6581 31° Northeast 380 437 20,400 -1,000 Descending Washington Center
Thu 09:41:10 AM 37.8106 -77.5894 31° Northeast 380 437 19,400 -706 Descending Washington Center
Thu 09:42:10 AM 37.8950 -77.5206 33° Northeast 375 432 19,000 -198 Descending Washington Center
Thu 09:43:11 AM 37.9794 -77.4542 32° Northeast 363 418 19,000  Level Washington Center
Thu 09:44:12 AM 38.0594 -77.3956 30° Northeast 353 406 19,000  Level Washington Center
Thu 09:45:12 AM 38.1356 -77.3342 32° Northeast 346 398 19,000 -150 Level Washington Center
Thu 09:46:12 AM 38.2156 -77.2725 31° Northeast 346 398 18,700 -864 Descending Washington Center
Thu 09:47:10 AM 38.2917 -77.2108 32° Northeast 340 391 17,300 -1,815 Descending Washington Center
Thu 09:48:11 AM 38.3675 -77.1489 33° Northeast 327 376 15,100 -1,587 Descending Washington Center
Thu 09:49:11 AM 38.4331 -77.0758 41° Northeast 316 364 14,100 -1,388 Descending Washington Center
Thu 09:50:12 AM 38.4986 -77.0003 42° Northeast 310 357 12,300 -1,041 Descending Washington Center
Thu 09:51:12 AM 38.5578 -76.9244 45° Northeast 304 350 12,000 -814 Descending Washington Center
Thu 09:52:10 AM 38.6169 -76.8539 43° Northeast 299 344 10,700 -1,169 Descending Washington Center
Thu 09:53:10 AM 38.6739 -76.7856 43° Northeast 287 330 9,700 -1,012 Descending Washington Center
Thu 09:54:56 AM 38.7500 -76.6500 54° Northeast 250 288 7,900 -1,157 Descending Potomac TRACON
Thu 09:55:56 AM 38.7833 -76.5667 63° Northeast 249 287 6,500 -1,200 Descending Potomac TRACON
Thu 09:56:56 AM 38.8500 -76.5333 21° North 267 307 5,500 -1,000 Descending Potomac TRACON
Thu 09:57:56 AM 38.9167 -76.5667 339° North 264 304 4,500 -750 Descending Potomac TRACON
Thu 09:58:56 AM 38.9833 -76.6167 330° Northwest 265 305 4,000 -496 Descending Potomac TRACON
Thu 09:59:57 AM 39.0167 -76.7000 297° West 270 311 3,500 -496 Descending Potomac TRACON
Thu 10:00:57 AM 39.0500 -76.7833 297° West 258 297 3,000 -500 Descending Potomac TRACON
Thu 10:01:57 AM 39.1000 -76.8333 322° Northwest 223 257 2,500 -500 Descending Potomac TRACON
Thu 10:02:57 AM 39.1500 -76.8333 360° North 205 236 2,000 -397 Descending Potomac TRACON
Thu 10:03:58 AM 39.1833 -76.7833 49° Northeast 138 159 1,700 -417 Descending Potomac TRACON
Thu 10:04:52 AM 39.1833 -76.7500 90° East 128 147 1,200 -684 Descending Potomac TRACON
Thu 10:05:52 AM 39.1833 -76.7000 90° East 132 152 400 -800 Descending Potomac TRACON
Thu 10:07:00 AM 39.1754 -76.6683 108° East  Level Estimated
Thu 10:14:00 AM 39.1754 -76.6683 293° West  Level Estimated
Thu 10:15:00 AM 39.1754 -76.6683 293° West  Level Estimated

Login

Don't have an account? Register now (free) for customized features, flight alerts, and more!